createdAt,value
2017-10-24T00:01:13.667Z,26.87
2017-10-24T00:03:42.013Z,25.77
2017-10-24T00:06:10.666Z,25.77
2017-10-24T00:08:39.715Z,24.57
2017-10-24T00:11:08.111Z,26.20
2017-10-24T00:13:37.379Z,24.70
2017-10-24T00:16:05.740Z,25.90
2017-10-24T00:18:34.885Z,25.53
2017-10-24T00:21:03.395Z,27.50
2017-10-24T00:23:31.737Z,26.50
2017-10-24T00:26:00.085Z,28.10
2017-10-24T00:28:28.495Z,26.77
2017-10-24T00:30:56.820Z,26.17
2017-10-24T00:33:25.908Z,26.67
2017-10-24T00:35:54.296Z,26.63
2017-10-24T00:38:22.663Z,26.93
2017-10-24T00:40:51.046Z,27.37
2017-10-24T00:43:19.486Z,28.53
2017-10-24T00:45:48.609Z,26.97
2017-10-24T00:48:16.958Z,28.87
2017-10-24T00:50:45.367Z,26.47
2017-10-24T00:53:14.531Z,26.47
2017-10-24T00:55:42.877Z,27.63
2017-10-24T00:58:11.247Z,27.93
2017-10-24T01:00:39.589Z,28.17
2017-10-24T01:03:08.194Z,27.60
2017-10-24T01:05:36.872Z,28.53
2017-10-24T01:08:05.986Z,27.07
2017-10-24T01:10:34.331Z,27.63
2017-10-24T01:13:02.709Z,28.63
2017-10-24T01:15:31.066Z,29.37
2017-10-24T01:18:00.075Z,29.03
2017-10-24T01:20:28.454Z,27.53
2017-10-24T01:22:56.789Z,28.27
2017-10-24T01:25:25.148Z,27.63
2017-10-24T01:27:53.737Z,29.07
2017-10-24T01:30:22.081Z,29.13
2017-10-24T01:32:50.433Z,28.70
2017-10-24T01:35:19.570Z,28.40
2017-10-24T01:37:47.907Z,28.30
2017-10-24T01:40:17.022Z,27.23
2017-10-24T01:42:46.287Z,29.30
2017-10-24T01:45:14.640Z,28.23
2017-10-24T01:47:42.995Z,27.87
2017-10-24T01:50:11.568Z,28.00
2017-10-24T01:52:39.926Z,26.73
2017-10-24T01:55:09.043Z,27.17
2017-10-24T01:57:37.422Z,27.80
2017-10-24T02:00:05.780Z,27.93
2017-10-24T02:02:34.130Z,26.83
2017-10-24T02:05:02.523Z,29.00
2017-10-24T02:07:30.876Z,27.00
2017-10-24T02:09:59.252Z,28.13
2017-10-24T02:12:28.410Z,28.67
2017-10-24T02:14:56.775Z,28.17
2017-10-24T02:17:25.955Z,29.33
2017-10-24T02:19:54.343Z,29.90
2017-10-24T02:22:23.470Z,29.70
2017-10-24T02:24:51.809Z,28.10
2017-10-24T02:27:20.192Z,30.07
2017-10-24T02:29:48.563Z,29.17
2017-10-24T02:32:16.914Z,29.03
2017-10-24T02:34:45.499Z,28.80
2017-10-24T02:37:13.891Z,28.80
2017-10-24T02:39:42.250Z,28.40
2017-10-24T02:42:10.628Z,29.20
2017-10-24T02:44:38.963Z,27.40
2017-10-24T02:47:08.067Z,28.10
2017-10-24T02:49:36.456Z,28.30
2017-10-24T02:52:04.812Z,29.80
2017-10-24T02:54:33.159Z,26.67
2017-10-24T02:57:02.397Z,29.50
2017-10-24T02:59:31.519Z,28.87
2017-10-24T03:01:59.889Z,28.83
2017-10-24T03:04:28.244Z,25.73
2017-10-24T03:06:56.585Z,26.33
2017-10-24T03:09:24.961Z,26.47
2017-10-24T03:11:53.332Z,28.13
2017-10-24T03:14:21.663Z,27.30
2017-10-24T03:16:50.764Z,27.33
2017-10-24T03:19:20.046Z,26.17
2017-10-24T03:21:48.386Z,26.33
2017-10-24T03:24:16.729Z,25.03
2017-10-24T03:26:45.875Z,25.77
2017-10-24T03:29:15.079Z,24.40
2017-10-24T03:31:44.310Z,26.30
2017-10-24T03:34:12.687Z,26.07
2017-10-24T03:36:42.244Z,27.30
2017-10-24T03:39:11.346Z,26.33
2017-10-24T03:41:40.594Z,25.87
2017-10-24T03:44:08.960Z,22.90
2017-10-24T03:46:37.323Z,23.53
2017-10-24T03:49:05.694Z,24.30
2017-10-24T03:51:34.056Z,25.77
2017-10-24T03:54:03.076Z,27.50
2017-10-24T03:56:31.470Z,24.77
2017-10-24T03:59:00.610Z,25.20
2017-10-24T04:01:28.964Z,26.20
2017-10-24T04:03:57.546Z,26.00
2017-10-24T04:06:25.878Z,24.13
2017-10-24T04:08:54.234Z,25.13
2017-10-24T04:11:23.453Z,24.80
2017-10-24T04:13:51.809Z,24.20
2017-10-24T04:16:20.153Z,24.00
2017-10-24T04:18:49.244Z,23.20
2017-10-24T04:21:17.596Z,24.20
2017-10-24T04:23:45.957Z,24.20
2017-10-24T04:26:14.484Z,22.93
2017-10-24T04:28:43.411Z,24.50
2017-10-24T04:31:11.753Z,23.83
2017-10-24T04:33:40.117Z,25.60
2017-10-24T04:36:09.399Z,26.57
2017-10-24T04:38:37.749Z,28.80
2017-10-24T04:41:07.038Z,27.90
2017-10-24T04:43:36.654Z,26.90
2017-10-24T04:46:04.999Z,31.17
2017-10-24T04:48:33.455Z,30.93
2017-10-24T04:51:01.810Z,31.00
2017-10-24T04:53:30.169Z,31.17
2017-10-24T04:55:58.648Z,31.27
2017-10-24T04:58:26.995Z,30.93
2017-10-24T05:00:56.079Z,29.87
2017-10-24T05:03:24.451Z,29.23
2017-10-24T05:05:52.808Z,26.77
2017-10-24T05:08:21.150Z,25.90
2017-10-24T05:10:50.771Z,24.60
2017-10-24T05:13:19.113Z,23.37
2017-10-24T05:15:47.464Z,24.07
2017-10-24T05:18:16.620Z,23.47
2017-10-24T05:20:44.974Z,20.97
2017-10-24T05:23:13.306Z,20.77
2017-10-24T05:25:41.668Z,21.27
2017-10-24T05:28:10.028Z,22.57
2017-10-24T05:30:39.929Z,19.77
2017-10-24T05:33:09.455Z,22.70
2017-10-24T05:35:39.137Z,20.07
2017-10-24T05:38:08.381Z,20.77
2017-10-24T05:40:36.804Z,21.67
2017-10-24T05:43:05.386Z,19.03
2017-10-24T05:45:34.526Z,19.70
2017-10-24T05:48:03.675Z,19.53
2017-10-24T05:50:32.713Z,19.60
2017-10-24T05:53:01.845Z,21.53
2017-10-24T05:55:30.291Z,20.53
2017-10-24T05:57:59.496Z,21.80
2017-10-24T06:00:28.224Z,22.53
2017-10-24T06:02:56.601Z,22.13
2017-10-24T06:05:24.954Z,22.47
2017-10-24T06:07:54.173Z,22.10
2017-10-24T06:10:23.138Z,22.03
2017-10-24T06:12:51.518Z,22.40
2017-10-24T06:15:19.955Z,21.80
2017-10-24T06:17:48.808Z,21.33
2017-10-24T06:20:17.150Z,23.70
2017-10-24T06:22:46.279Z,22.07
2017-10-24T06:25:14.650Z,22.33
2017-10-24T06:27:43.021Z,23.10
2017-10-24T06:30:12.151Z,21.47
2017-10-24T06:32:40.844Z,20.37
2017-10-24T06:35:09.184Z,21.00
2017-10-24T06:37:38.303Z,19.80
2017-10-24T06:40:06.755Z,20.90
2017-10-24T06:42:35.090Z,20.97
2017-10-24T06:45:03.452Z,21.00
2017-10-24T06:47:32.097Z,20.57
2017-10-24T06:50:01.214Z,19.77
2017-10-24T06:52:30.274Z,19.80
2017-10-24T06:54:59.345Z,20.73
2017-10-24T06:57:27.695Z,21.63
2017-10-24T06:59:56.094Z,20.80
2017-10-24T07:02:24.758Z,21.77
2017-10-24T07:04:53.859Z,22.30
2017-10-24T07:07:22.191Z,19.87
2017-10-24T07:09:50.580Z,19.13
2017-10-24T07:12:19.696Z,19.30
2017-10-24T07:14:48.134Z,18.40
2017-10-24T07:17:16.516Z,19.67
2017-10-24T07:19:44.866Z,17.67
2017-10-24T07:22:13.219Z,20.00
2017-10-24T07:24:41.766Z,18.50
2017-10-24T07:27:10.121Z,18.13
2017-10-24T07:29:39.290Z,19.10
2017-10-24T07:32:07.671Z,18.47
2017-10-24T07:34:36.782Z,18.80
2017-10-24T07:37:05.882Z,19.27
2017-10-24T07:39:36.661Z,18.67
2017-10-24T07:42:05.776Z,18.87
2017-10-24T07:44:34.137Z,17.90
2017-10-24T07:47:04.432Z,18.33
2017-10-24T07:49:32.778Z,20.77
2017-10-24T07:52:01.129Z,19.13
2017-10-24T07:54:29.511Z,17.93
2017-10-24T07:56:58.112Z,18.23
2017-10-24T07:59:26.457Z,19.10
2017-10-24T08:01:55.679Z,18.27
2017-10-24T08:04:24.016Z,18.23
2017-10-24T08:06:52.375Z,19.93
2017-10-24T08:09:21.416Z,18.20
2017-10-24T08:11:49.783Z,18.70
2017-10-24T08:14:18.837Z,20.07
2017-10-24T08:16:47.223Z,20.93
2017-10-24T08:19:15.594Z,21.40
2017-10-24T08:21:43.939Z,19.90
2017-10-24T08:24:13.036Z,22.03
2017-10-24T08:26:42.039Z,22.60
2017-10-24T08:29:11.157Z,24.23
2017-10-24T08:31:39.745Z,25.80
2017-10-24T08:34:08.460Z,26.73
2017-10-24T08:36:37.649Z,26.80
2017-10-24T08:39:07.134Z,27.20
2017-10-24T08:41:35.483Z,26.20
2017-10-24T08:44:03.827Z,27.97
2017-10-24T08:46:32.965Z,31.37
2017-10-24T08:49:01.333Z,30.43
2017-10-24T08:51:30.383Z,32.47
2017-10-24T08:53:59.812Z,30.57
2017-10-24T08:56:29.070Z,32.57
2017-10-24T08:58:57.425Z,32.40
2017-10-24T09:01:28.433Z,32.60
2017-10-24T09:03:57.718Z,33.07
2017-10-24T09:06:35.480Z,32.80
2017-10-24T09:12:14.430Z,33.10
2017-10-24T09:14:42.757Z,32.50
2017-10-24T09:17:44.517Z,34.97
2017-10-24T09:20:13.664Z,35.83
2017-10-24T09:22:42.019Z,33.57
2017-10-24T09:25:11.165Z,33.17
2017-10-24T09:27:39.748Z,34.23
2017-10-24T09:30:08.770Z,33.00
2017-10-24T09:32:39.568Z,33.70
2017-10-24T09:35:07.937Z,35.83
2017-10-24T09:37:36.281Z,32.67
2017-10-24T09:40:04.671Z,35.20
2017-10-24T09:42:33.086Z,33.93
2017-10-24T09:45:01.449Z,33.93
2017-10-24T09:47:29.824Z,32.20
2017-10-24T09:49:58.209Z,33.33
2017-10-24T09:52:26.565Z,33.40
2017-10-24T09:54:55.043Z,34.50
2017-10-24T09:57:24.162Z,31.50
2017-10-24T09:59:52.502Z,32.43
2017-10-24T10:02:21.921Z,31.93
2017-10-24T10:04:51.041Z,35.00
2017-10-24T10:07:20.175Z,32.40
2017-10-24T10:09:48.604Z,31.40
2017-10-24T10:12:17.022Z,32.17
2017-10-24T10:14:46.062Z,32.90
2017-10-24T10:17:14.778Z,31.90
2017-10-24T10:19:43.107Z,33.20
2017-10-24T10:22:12.222Z,30.60
2017-10-24T10:24:41.510Z,34.70
2017-10-24T10:27:10.613Z,35.07
2017-10-24T10:29:39.897Z,33.90
2017-10-24T10:32:08.286Z,35.20
2017-10-24T10:34:37.405Z,33.47
2017-10-24T10:37:05.754Z,34.50
2017-10-24T10:39:34.331Z,33.20
2017-10-24T10:42:02.687Z,33.03
2017-10-24T10:44:31.048Z,33.00
2017-10-24T10:46:59.442Z,36.30
2017-10-24T10:49:27.799Z,33.70
2017-10-24T10:51:56.142Z,33.10
2017-10-24T10:54:25.446Z,31.43
2017-10-24T10:56:55.329Z,33.27
2017-10-24T10:59:23.711Z,32.27
2017-10-24T11:01:52.453Z,31.23
2017-10-24T11:04:20.808Z,31.90
2017-10-24T11:06:49.924Z,33.10
2017-10-24T11:09:19.053Z,32.50
2017-10-24T11:11:47.399Z,31.10
2017-10-24T11:14:15.748Z,32.20
2017-10-24T11:16:44.950Z,33.50
2017-10-24T11:19:14.074Z,32.00
2017-10-24T11:21:48.948Z,30.63
2017-10-24T11:24:17.797Z,31.87
2017-10-24T11:26:46.146Z,30.67
2017-10-24T11:29:15.337Z,31.17
2017-10-24T11:31:44.106Z,29.80
2017-10-24T11:34:12.467Z,28.47
2017-10-24T11:36:41.606Z,29.87
2017-10-24T11:39:09.941Z,29.50
2017-10-24T11:41:38.299Z,26.43
2017-10-24T11:44:06.739Z,28.13
2017-10-24T11:46:35.870Z,26.70
2017-10-24T11:49:04.590Z,25.67
2017-10-24T11:51:32.963Z,26.20
2017-10-24T11:54:02.238Z,24.90
2017-10-24T11:56:30.578Z,25.13
2017-10-24T11:58:59.408Z,23.23
2017-10-24T12:01:27.753Z,24.30
2017-10-24T12:03:56.135Z,23.43
2017-10-24T12:06:25.494Z,22.53
2017-10-24T12:08:55.387Z,23.23
2017-10-24T12:11:23.737Z,23.20
2017-10-24T12:13:52.895Z,20.30
2017-10-24T12:16:21.242Z,21.37
2017-10-24T12:18:49.584Z,21.33
2017-10-24T12:21:18.742Z,21.60
2017-10-24T12:23:47.095Z,20.23
2017-10-24T12:26:15.437Z,19.70
2017-10-24T12:28:44.876Z,20.97
2017-10-24T12:31:13.228Z,17.57
2017-10-24T12:33:42.334Z,19.60
2017-10-24T12:36:10.724Z,18.57
2017-10-24T12:38:39.068Z,18.43
2017-10-24T12:41:08.193Z,18.87
2017-10-24T12:43:37.338Z,19.73
2017-10-24T12:46:22.369Z,18.70
2017-10-24T12:48:51.486Z,18.60
2017-10-24T12:51:19.843Z,18.00
2017-10-24T12:53:48.209Z,19.57
2017-10-24T12:56:17.357Z,18.07
2017-10-24T12:58:46.722Z,18.10
2017-10-24T13:01:15.099Z,17.73
2017-10-24T13:03:43.494Z,17.97
2017-10-24T13:06:11.875Z,16.60
2017-10-24T13:08:40.259Z,17.60
2017-10-24T13:11:08.972Z,18.03
2017-10-24T13:13:37.347Z,17.57
2017-10-24T13:16:05.875Z,16.83
2017-10-24T13:18:34.463Z,19.27
2017-10-24T13:21:02.830Z,15.90
2017-10-24T13:23:31.560Z,17.07
2017-10-24T13:25:59.942Z,17.30
2017-10-24T13:28:28.323Z,18.73
2017-10-24T13:30:56.668Z,18.13
2017-10-24T13:33:26.096Z,17.83
2017-10-24T13:35:54.468Z,17.20
2017-10-24T13:38:23.451Z,17.73
2017-10-24T13:40:54.489Z,15.30
2017-10-24T13:43:22.958Z,16.40
2017-10-24T13:45:52.094Z,14.93
2017-10-24T13:48:20.474Z,14.20
2017-10-24T13:50:48.832Z,14.00
2017-10-24T13:53:17.186Z,13.23
2017-10-24T13:55:46.393Z,13.10
2017-10-24T13:58:15.513Z,11.97
2017-10-24T14:00:44.096Z,12.50
2017-10-24T14:03:12.486Z,11.40
2017-10-24T14:05:46.113Z,11.97
2017-10-24T14:08:20.780Z,11.80
2017-10-24T14:10:50.140Z,10.73
2017-10-24T14:13:19.257Z,11.20
2017-10-24T14:15:48.024Z,11.20
2017-10-24T14:18:16.388Z,11.87
2017-10-24T14:20:44.725Z,11.70
2017-10-24T14:23:13.366Z,10.80
2017-10-24T14:25:41.730Z,12.30
2017-10-24T14:28:10.065Z,12.60
2017-10-24T14:30:38.457Z,11.50
2017-10-24T14:33:07.575Z,11.70
2017-10-24T14:35:35.924Z,12.90
2017-10-24T14:38:05.110Z,11.37
2017-10-24T14:40:33.460Z,10.93
2017-10-24T14:43:01.815Z,11.93
2017-10-24T14:45:30.190Z,12.40
2017-10-24T14:47:59.147Z,12.60
2017-10-24T14:50:28.278Z,12.30
2017-10-24T14:52:56.663Z,12.43
2017-10-24T14:55:24.998Z,12.37
2017-10-24T14:57:53.345Z,13.47
2017-10-24T15:00:21.894Z,12.17
2017-10-24T15:02:50.242Z,12.80
2017-10-24T15:05:19.363Z,12.17
2017-10-24T15:07:47.779Z,12.83
2017-10-24T15:10:16.131Z,13.43
2017-10-24T15:12:44.800Z,13.60
2017-10-24T15:15:13.177Z,15.20
2017-10-24T15:17:41.548Z,14.83
2017-10-24T15:20:10.928Z,14.63
2017-10-24T15:22:40.392Z,14.80
2017-10-24T15:25:08.784Z,14.80
2017-10-24T15:27:37.122Z,15.17
2017-10-24T15:30:06.490Z,15.20
2017-10-24T15:32:34.842Z,15.50
2017-10-24T15:35:03.188Z,16.37
2017-10-24T15:37:32.073Z,14.80
2017-10-24T15:40:01.180Z,16.30
2017-10-24T15:42:30.333Z,17.37
2017-10-24T15:44:58.885Z,18.10
2017-10-24T15:47:27.226Z,18.60
2017-10-24T15:49:55.583Z,17.27
2017-10-24T15:52:23.984Z,18.57
2017-10-24T15:54:52.345Z,18.30
2017-10-24T15:57:21.476Z,18.97
2017-10-24T15:59:49.836Z,19.90
2017-10-24T16:02:19.341Z,19.63
2017-10-24T16:04:48.442Z,21.50
2017-10-24T16:07:17.236Z,20.87
2017-10-24T16:09:45.581Z,19.90
2017-10-24T16:12:13.962Z,19.80
2017-10-24T16:14:42.444Z,20.33
2017-10-24T16:17:11.633Z,20.33
2017-10-24T16:19:39.990Z,20.20
2017-10-24T16:22:08.388Z,20.27
2017-10-24T16:24:36.742Z,19.77
2017-10-24T16:27:05.538Z,20.50
2017-10-24T16:29:34.348Z,20.30
2017-10-24T16:32:02.721Z,19.93
2017-10-24T16:34:31.576Z,19.87
2017-10-24T16:36:59.972Z,18.93
2017-10-24T16:39:29.044Z,18.57
2017-10-24T16:41:58.223Z,17.60
2017-10-24T16:44:27.367Z,18.47
2017-10-24T16:46:55.717Z,18.80
2017-10-24T16:49:24.081Z,18.83
2017-10-24T16:51:53.416Z,16.43
2017-10-24T16:54:22.339Z,16.40
2017-10-24T16:56:50.918Z,17.13
2017-10-24T16:59:19.320Z,16.10
2017-10-24T17:01:47.705Z,16.53
2017-10-24T17:04:17.360Z,16.80
2017-10-24T17:06:45.730Z,17.43
2017-10-24T17:09:14.074Z,16.60
2017-10-24T17:11:43.201Z,17.10
2017-10-24T17:14:11.807Z,15.80
2017-10-24T17:16:40.290Z,18.03
2017-10-24T17:19:08.639Z,16.90
2017-10-24T17:21:37.018Z,16.87
2017-10-24T17:24:05.396Z,17.57
2017-10-24T17:26:34.048Z,17.60
2017-10-24T17:29:02.602Z,19.20
2017-10-24T17:31:30.944Z,18.40
2017-10-24T17:33:59.293Z,19.40
2017-10-24T17:36:28.259Z,18.17
2017-10-24T17:38:56.667Z,19.17
2017-10-24T17:41:25.029Z,19.73
2017-10-24T17:43:54.198Z,18.53
2017-10-24T17:46:22.547Z,18.00
2017-10-24T17:48:51.692Z,20.43
2017-10-24T17:51:20.069Z,19.60
2017-10-24T17:53:48.429Z,18.97
2017-10-24T17:56:16.787Z,19.83
2017-10-24T17:58:45.567Z,21.43
2017-10-24T18:01:13.951Z,20.57
2017-10-24T18:03:42.307Z,20.13
2017-10-24T18:06:10.697Z,20.97
2017-10-24T18:08:39.838Z,19.40
2017-10-24T18:11:08.518Z,18.27
2017-10-24T18:13:37.047Z,20.10
2017-10-24T18:16:06.189Z,18.90
2017-10-24T18:18:35.400Z,19.60
2017-10-24T18:21:03.841Z,19.07
2017-10-24T18:23:32.996Z,19.73
2017-10-24T18:26:01.338Z,19.80
2017-10-24T18:28:29.720Z,20.23
2017-10-24T18:30:58.520Z,19.90
2017-10-24T18:33:26.856Z,19.77
2017-10-24T18:35:56.025Z,20.10
2017-10-24T18:38:24.383Z,18.87
2017-10-24T18:40:52.744Z,20.17
2017-10-24T18:43:21.161Z,19.63
2017-10-24T18:45:49.503Z,19.80
2017-10-24T18:48:18.621Z,21.93
2017-10-24T18:50:47.570Z,20.00
2017-10-24T18:53:15.903Z,20.27
2017-10-24T18:55:44.267Z,20.73
2017-10-24T18:58:12.667Z,20.37
2017-10-24T19:00:41.039Z,21.83
2017-10-24T19:03:09.412Z,19.80
2017-10-24T19:05:38.085Z,22.47
2017-10-24T19:08:06.685Z,19.70
2017-10-24T19:10:35.402Z,21.23
2017-10-24T19:13:03.804Z,20.50
2017-10-24T19:15:32.925Z,21.10
2017-10-24T19:18:02.056Z,21.57
2017-10-24T19:20:30.432Z,23.17
2017-10-24T19:22:58.779Z,23.33
2017-10-24T19:25:27.114Z,22.80
2017-10-24T19:27:55.863Z,24.43
2017-10-24T19:30:24.227Z,22.60
2017-10-24T19:32:53.343Z,25.13
2017-10-24T19:35:21.736Z,23.00
2017-10-24T19:37:50.104Z,26.00
2017-10-24T19:40:18.782Z,22.97
2017-10-24T19:42:47.462Z,22.87
2017-10-24T19:45:15.810Z,23.30
2017-10-24T19:47:44.409Z,24.10
2017-10-24T19:50:12.856Z,22.47
2017-10-24T19:52:41.998Z,22.83
2017-10-24T19:55:10.337Z,22.77
2017-10-24T19:57:39.489Z,21.10
2017-10-24T20:00:07.856Z,21.00
2017-10-24T20:02:36.438Z,19.60
2017-10-24T20:05:04.807Z,20.17
2017-10-24T20:07:33.146Z,20.03
2017-10-24T20:10:01.569Z,19.40
2017-10-24T20:12:31.306Z,19.63
2017-10-24T20:15:00.579Z,19.33
2017-10-24T20:17:28.928Z,20.13
2017-10-24T20:19:57.317Z,19.30
2017-10-24T20:22:26.444Z,20.57
2017-10-24T20:24:54.837Z,21.03
2017-10-24T20:27:23.218Z,23.20
2017-10-24T20:29:52.202Z,23.30
2017-10-24T20:32:20.986Z,23.07
2017-10-24T20:34:50.091Z,22.20
2017-10-24T20:37:18.430Z,23.60
2017-10-24T20:39:46.821Z,24.80
2017-10-24T20:42:15.590Z,25.13
2017-10-24T20:44:44.727Z,25.00
2017-10-24T20:47:13.074Z,25.13
2017-10-24T20:49:43.070Z,25.80
2017-10-24T20:52:11.402Z,25.90
2017-10-24T20:54:39.908Z,25.70
2017-10-24T20:57:09.277Z,23.27
2017-10-24T20:59:38.426Z,25.30
2017-10-24T21:02:06.766Z,23.07
2017-10-24T21:04:35.138Z,23.63
2017-10-24T21:07:03.518Z,24.30
2017-10-24T21:09:31.851Z,22.77
2017-10-24T21:12:00.232Z,23.43
2017-10-24T21:14:28.578Z,21.40
2017-10-24T21:16:57.707Z,22.30
2017-10-24T21:19:27.942Z,22.53
2017-10-24T21:21:57.067Z,21.60
2017-10-24T21:24:26.220Z,21.53
2017-10-24T21:26:54.587Z,19.60
2017-10-24T21:29:23.739Z,20.23
2017-10-24T21:31:53.248Z,19.03
2017-10-24T21:34:21.654Z,18.00
2017-10-24T21:36:50.000Z,18.13
2017-10-24T21:39:18.972Z,18.10
2017-10-24T21:41:48.169Z,18.87
2017-10-24T21:44:17.231Z,17.10
2017-10-24T21:46:45.588Z,17.43
2017-10-24T21:49:13.967Z,16.13
2017-10-24T21:51:42.317Z,14.87
2017-10-24T21:54:10.689Z,16.07
2017-10-24T21:56:39.060Z,15.33
2017-10-24T21:59:07.404Z,14.80
2017-10-24T22:01:36.554Z,14.57
2017-10-24T22:04:05.007Z,14.20
2017-10-24T22:06:34.109Z,14.67
2017-10-24T22:09:03.236Z,13.50
2017-10-24T22:11:31.602Z,14.97
2017-10-24T22:14:00.607Z,14.10
2017-10-24T22:16:28.993Z,13.40
2017-10-24T22:18:57.369Z,14.10
2017-10-24T22:21:25.719Z,13.40
2017-10-24T22:23:54.836Z,13.83
2017-10-24T22:26:23.393Z,14.03
2017-10-24T22:28:52.745Z,13.67
2017-10-24T22:31:21.853Z,15.37
2017-10-24T22:33:50.542Z,14.20
2017-10-24T22:36:20.505Z,14.40
2017-10-24T22:38:49.105Z,14.77
2017-10-24T22:41:18.336Z,13.63
2017-10-24T22:43:46.659Z,13.03
2017-10-24T22:46:16.496Z,13.73
2017-10-24T22:48:45.146Z,15.13
2017-10-24T22:51:13.563Z,15.27
2017-10-24T22:53:41.914Z,13.97
2017-10-24T22:56:10.318Z,15.67
2017-10-24T22:58:39.843Z,15.60
2017-10-24T23:01:08.226Z,16.43
2017-10-24T23:03:36.856Z,15.80
2017-10-24T23:06:06.214Z,16.10
2017-10-24T23:08:34.575Z,15.33
2017-10-24T23:11:03.906Z,16.67
2017-10-24T23:13:33.270Z,16.60
2017-10-24T23:16:01.743Z,15.90
2017-10-24T23:18:30.125Z,16.47
2017-10-24T23:20:59.266Z,16.50
2017-10-24T23:23:27.609Z,15.80
2017-10-24T23:25:55.978Z,16.17
2017-10-24T23:28:25.091Z,17.10
2017-10-24T23:30:53.416Z,16.70
2017-10-24T23:33:21.885Z,17.20
2017-10-24T23:35:50.725Z,16.40
2017-10-24T23:38:19.850Z,17.50
2017-10-24T23:40:49.308Z,14.63
2017-10-24T23:43:18.460Z,15.10
2017-10-24T23:45:46.883Z,17.10
2017-10-24T23:48:16.044Z,15.37
2017-10-24T23:50:44.407Z,15.43
2017-10-24T23:53:12.762Z,15.90
2017-10-24T23:55:41.286Z,16.27
2017-10-24T23:58:09.621Z,15.77
